Time;durP1;ratioP1;P1;durP2;ratioP2;P2;SDS_P1;SDS_P2;PMS_P1;PMS_P2;Temp;Humidity;BMP_temperature;BMP_pressure;BME280_temperature;BME280_humidity;BME280_pressure;Samples;Min_cycle;Max_cycle;Signal;HPM_P1;HPM_P2
2022/09/05 00:01:52;;;;;;;8.60;4.00;;;19.40;95.70;;;;;;4915743;29;20060;-57
2022/09/05 00:04:31;;;;;;;7.25;3.97;;;19.30;96.10;;;;;;4915719;29;20044;-57
2022/09/05 00:07:11;;;;;;;10.20;4.00;;;19.70;92.50;;;;;;4975382;28;20052;-57
2022/09/05 00:09:37;;;;;;;8.40;3.85;;;19.50;96.10;;;;;;5012191;28;20419;-62
2022/09/05 00:12:04;;;;;;;6.82;4.05;;;19.70;96.20;;;;;;5011876;28;20058;-62
2022/09/05 00:14:49;;;;;;;8.02;3.72;;;19.60;92.90;;;;;;5012237;28;20049;-61
2022/09/05 00:17:39;;;;;;;5.07;3.90;;;18.70;97.00;;;;;;5041145;28;20163;-61
2022/09/05 00:20:35;;;;;;;9.68;3.95;;;19.70;98.70;;;;;;5074234;28;20435;-62
2022/09/05 00:23:23;;;;;;;6.28;4.07;;;19.40;98.50;;;;;;5073915;28;20060;-61
2022/09/05 00:26:16;;;;;;;9.43;4.10;;;19.60;97.00;;;;;;5073921;28;20048;-61
2022/09/05 00:29:00;;;;;;;6.88;3.90;;;19.40;97.60;;;;;;5082005;28;20048;-61
2022/09/05 00:32:08;;;;;;;6.38;3.90;;;19.30;98.30;;;;;;5073804;28;20033;-58
2022/09/05 00:35:01;;;;;;;11.77;4.60;;;19.20;98.60;;;;;;5069580;28;20465;-57
2022/09/05 00:37:37;;;;;;;4.90;3.90;;;19.40;94.80;;;;;;5073607;28;20416;-57
2022/09/05 00:40:36;;;;;;;8.32;4.30;;;19.30;99.10;;;;;;5073442;28;20041;-57
2022/09/05 00:43:08;;;;;;;6.40;4.30;;;19.30;94.90;;;;;;5073226;28;20198;-57
2022/09/05 00:45:39;;;;;;;9.77;4.00;;;19.40;99.90;;;;;;5073055;28;20131;-57
2022/09/05 00:48:11;;;;;;;5.43;4.00;;;19.40;98.90;;;;;;5073708;28;20040;-57
2022/09/05 00:50:53;;;;;;;6.40;4.30;;;19.20;95.40;;;;;;5073112;28;20097;-57
2022/09/05 00:54:00;;;;;;;13.70;4.38;;;19.10;99.10;;;;;;5073406;28;20032;-57
2022/09/05 00:56:38;;;;;;;5.38;4.10;;;18.80;98.90;;;;;;5050863;28;20076;-57
2022/09/05 00:59:22;;;;;;;8.82;4.40;;;19.70;99.70;;;;;;5050347;28;20044;-57
2022/09/05 01:02:08;;;;;;;7.72;4.20;;;19.20;99.90;;;;;;5050658;28;20056;-57
2022/09/05 01:04:48;;;;;;;6.38;4.18;;;19.00;96.00;;;;;;5033957;28;20166;-59
2022/09/05 01:07:51;;;;;;;7.57;4.05;;;18.90;99.80;;;;;;5034014;28;20535;-59
2022/09/05 01:10:31;;;;;;;8.60;4.50;;;19.20;99.90;;;;;;5034047;28;20044;-57
2022/09/05 01:13:05;;;;;;;6.07;4.30;;;19.00;96.80;;;;;;5050823;28;20049;-57
2022/09/05 01:15:56;;;;;;;9.20;4.30;;;19.00;97.00;;;;;;5050734;28;20037;-57
2022/09/05 01:18:41;;;;;;;6.70;4.40;;;19.00;97.20;;;;;;5050701;28;20047;-57
2022/09/05 01:21:48;;;;;;;6.40;4.32;;;18.90;97.50;;;;;;5050555;28;20135;-57
2022/09/05 01:24:57;;;;;;;6.35;4.40;;;18.50;99.90;;;;;;5034317;28;20127;-57
2022/09/05 01:27:56;;;;;;;9.77;4.68;;;18.80;97.90;;;;;;5025571;28;20055;-57
2022/09/05 01:30:29;;;;;;;8.27;5.00;;;18.70;99.90;;;;;;5050510;28;20493;-57
2022/09/05 01:33:20;;;;;;;9.15;4.93;;;18.80;98.30;;;;;;5059361;28;20097;-57
2022/09/05 01:36:43;;;;;;;7.25;4.75;;;18.60;99.90;;;;;;5061283;28;20048;-57
2022/09/05 01:39:18;;;;;;;6.55;4.43;;;18.50;99.90;;;;;;5050403;28;20049;-57
2022/09/05 01:42:21;;;;;;;8.70;5.07;;;18.80;99.90;;;;;;5033847;28;20056;-57
2022/09/05 01:45:06;;;;;;;8.93;5.07;;;18.80;99.90;;;;;;5019214;28;20052;-57
2022/09/05 01:47:46;;;;;;;6.53;4.70;;;19.60;99.90;;;;;;5054389;28;20551;-57
2022/09/05 01:50:15;;;;;;;7.60;5.28;;;18.60;99.30;;;;;;5054326;28;20053;-57
2022/09/05 01:52:49;;;;;;;13.63;5.22;;;18.60;99.50;;;;;;5054415;28;20112;-57
2022/09/05 01:55:58;;;;;;;8.93;5.00;;;18.70;99.90;;;;;;5054314;28;20037;-57
2022/09/05 01:58:43;;;;;;;7.20;5.07;;;18.60;99.80;;;;;;5020245;28;20124;-57
2022/09/05 02:01:35;;;;;;;9.97;4.93;;;18.40;99.90;;;;;;5037544;28;20044;-57
2022/09/05 02:04:00;;;;;;;10.32;5.07;;;18.40;99.90;;;;;;5054127;28;20116;-57
2022/09/05 02:06:53;;;;;;;10.85;5.40;;;18.20;99.90;;;;;;5054126;28;20179;-57
2022/09/05 02:09:37;;;;;;;10.02;5.22;;;18.30;99.90;;;;;;5059865;28;20049;-57
2022/09/05 02:12:18;;;;;;;8.13;4.90;;;18.10;99.90;;;;;;5074910;28;20044;-57
2022/09/05 02:15:02;;;;;;;6.78;5.00;;;19.00;99.90;;;;;;5075013;28;20033;-61
2022/09/05 02:17:43;;;;;;;10.50;5.53;;;18.20;99.90;;;;;;5076472;28;20077;-61
2022/09/05 02:20:16;;;;;;;6.75;5.20;;;17.80;99.90;;;;;;5076372;28;20047;-61
2022/09/05 02:22:47;;;;;;;7.28;5.35;;;18.00;99.90;;;;;;5076065;28;20044;-61
2022/09/05 02:25:24;;;;;;;12.20;5.50;;;18.30;99.90;;;;;;5075946;28;20150;-61
2022/09/05 02:27:59;;;;;;;9.52;5.00;;;18.00;99.90;;;;;;5076111;28;20044;-61
2022/09/05 02:30:29;;;;;;;;;;;18.20;99.90;;;;;;5076661;28;20111;-61
2022/09/05 02:33:21;;;;;;;10.93;5.38;;;17.70;99.90;;;;;;5076105;28;20006;-61
2022/09/05 02:36:24;;;;;;;8.82;5.40;;;18.10;99.90;;;;;;5075656;28;20051;-61
2022/09/05 02:39:18;;;;;;;8.88;5.10;;;17.30;99.90;;;;;;5075816;28;20408;-61
2022/09/05 02:41:59;;;;;;;9.77;5.38;;;18.20;99.90;;;;;;5076000;28;20109;-61
2022/09/05 02:44:50;;;;;;;9.82;5.47;;;18.30;99.90;;;;;;5075824;28;20040;-61
2022/09/05 02:47:42;;;;;;;12.88;5.75;;;18.10;99.90;;;;;;5075455;28;20098;-61
2022/09/05 02:50:46;;;;;;;13.43;5.47;;;17.80;99.90;;;;;;5071243;28;20051;-62
2022/09/05 02:53:16;;;;;;;9.82;5.57;;;18.20;99.90;;;;;;5070813;28;20110;-61
2022/09/05 02:55:53;;;;;;;7.38;5.32;;;18.00;99.90;;;;;;5075355;28;20142;-61
2022/09/05 02:58:41;;;;;;;8.55;5.30;;;17.80;99.90;;;;;;5074568;28;20044;-61
2022/09/05 03:01:31;;;;;;;10.38;5.90;;;17.90;99.90;;;;;;5074054;28;20044;-61
2022/09/05 03:04:14;;;;;;;7.90;5.30;;;17.50;99.90;;;;;;5075425;28;20060;-61
2022/09/05 03:06:49;;;;;;;9.77;5.40;;;17.70;99.90;;;;;;5075198;28;20045;-61
2022/09/05 03:09:51;;;;;;;11.70;5.30;;;17.90;99.90;;;;;;5075064;28;20400;-57
2022/09/05 03:12:44;;;;;;;10.32;5.60;;;17.50;99.90;;;;;;5075276;28;20044;-57
2022/09/05 03:15:52;;;;;;;9.00;5.63;;;17.60;99.90;;;;;;5073780;28;20037;-57
2022/09/05 03:18:45;;;;;;;9.95;5.60;;;17.70;99.90;;;;;;5073788;28;20047;-56
2022/09/05 03:21:22;;;;;;;8.27;5.97;;;16.80;99.90;;;;;;5074909;28;20537;-57
2022/09/05 03:24:27;;;;;;;10.95;5.57;;;17.60;99.90;;;;;;5074804;28;20400;-57
2022/09/05 03:27:12;;;;;;;12.00;5.82;;;17.40;99.90;;;;;;5074876;28;20047;-57
2022/09/05 03:29:56;;;;;;;12.73;5.90;;;17.30;99.90;;;;;;5074708;28;20047;-57
2022/09/05 03:32:37;;;;;;;6.60;5.45;;;17.30;99.90;;;;;;5074927;28;20047;-61
2022/09/05 03:35:27;;;;;;;9.88;6.10;;;17.50;99.90;;;;;;5074604;28;20074;-61
2022/09/05 03:38:09;;;;;;;8.85;6.00;;;17.40;99.90;;;;;;5074591;28;20056;-61
2022/09/05 03:41:04;;;;;;;9.48;5.72;;;17.40;99.90;;;;;;5074519;28;20119;-61
2022/09/05 03:44:08;;;;;;;8.38;6.10;;;17.10;99.90;;;;;;5066557;28;20049;-61
2022/09/05 03:47:02;;;;;;;8.15;6.07;;;17.20;99.90;;;;;;5070784;28;20132;-61
2022/09/05 03:49:46;;;;;;;6.82;6.05;;;17.20;99.90;;;;;;5074455;28;20037;-61
2022/09/05 03:52:54;;;;;;;12.35;6.30;;;17.20;99.90;;;;;;5074221;28;20498;-61
2022/09/05 03:55:41;;;;;;;8.38;6.18;;;17.30;99.90;;;;;;5071607;28;20521;-60
2022/09/05 03:58:21;;;;;;;9.32;6.45;;;17.20;99.90;;;;;;5074141;28;20075;-61
2022/09/05 04:01:02;;;;;;;15.18;6.70;;;17.00;99.90;;;;;;5073209;28;20040;-61
2022/09/05 04:03:59;;;;;;;19.33;6.78;;;17.00;99.90;;;;;;5073779;28;20504;-61
2022/09/05 04:07:00;;;;;;;7.75;6.45;;;16.80;99.90;;;;;;5072708;28;20041;-61
2022/09/05 04:09:31;;;;;;;12.07;6.47;;;17.10;99.90;;;;;;5071846;28;20052;-61
2022/09/05 04:12:09;;;;;;;12.10;6.70;;;16.60;99.90;;;;;;5074260;28;20032;-61
2022/09/05 04:14:53;;;;;;;9.10;6.13;;;17.00;99.90;;;;;;5074280;28;20043;-61
2022/09/05 04:17:23;;;;;;;9.90;6.60;;;16.30;99.90;;;;;;5072784;28;20132;-60
2022/09/05 04:20:02;;;;;;;12.32;6.40;;;17.00;99.90;;;;;;5073710;28;20040;-61
2022/09/05 04:22:37;;;;;;;9.85;6.70;;;17.70;99.90;;;;;;5073691;28;20480;-61
2022/09/05 04:25:24;;;;;;;13.27;6.50;;;16.90;99.90;;;;;;5074051;28;20044;-61
2022/09/05 04:28:12;;;;;;;14.07;6.88;;;17.30;99.90;;;;;;5073527;28;20047;-61
2022/09/05 04:30:46;;;;;;;12.07;7.10;;;17.40;99.90;;;;;;5072035;28;20430;-61
2022/09/05 04:33:29;;;;;;;8.38;6.60;;;16.80;99.90;;;;;;5073277;28;20079;-60
2022/09/05 04:36:06;;;;;;;10.80;7.07;;;16.90;99.90;;;;;;5071811;28;20037;-61
2022/09/05 04:38:40;;;;;;;8.35;6.90;;;16.70;99.90;;;;;;5071903;28;20048;-61
2022/09/05 04:41:20;;;;;;;10.15;7.22;;;16.80;99.90;;;;;;5072127;28;20044;-61
2022/09/05 04:44:14;;;;;;;13.00;6.95;;;16.50;99.90;;;;;;5071673;28;20044;-61
2022/09/05 04:46:47;;;;;;;11.13;7.15;;;16.80;99.90;;;;;;5070413;28;20084;-61
2022/09/05 04:49:35;;;;;;;15.93;6.93;;;16.70;99.90;;;;;;5072997;28;20071;-61
2022/09/05 04:52:22;;;;;;;11.35;6.85;;;16.70;99.90;;;;;;5073264;28;20045;-61
2022/09/05 04:54:52;;;;;;;12.90;7.40;;;15.10;99.90;;;;;;5073236;28;20492;-61
2022/09/05 04:57:55;;;;;;;15.32;6.95;;;16.30;99.90;;;;;;5073200;28;20048;-61
2022/09/05 05:00:47;;;;;;;9.32;7.38;;;16.60;99.90;;;;;;5073039;28;20044;-61
2022/09/05 05:03:21;;;;;;;11.35;6.85;;;16.60;99.90;;;;;;5072991;28;20114;-61
2022/09/05 05:05:47;;;;;;;12.25;7.30;;;16.70;99.90;;;;;;5073343;28;20102;-61
2022/09/05 05:08:21;;;;;;;15.35;7.60;;;16.60;99.90;;;;;;5073040;28;20443;-61
2022/09/05 05:10:56;;;;;;;11.65;7.07;;;16.60;99.90;;;;;;5073300;28;20028;-61
2022/09/05 05:13:45;;;;;;;13.15;7.85;;;16.70;99.90;;;;;;5073015;28;20033;-61
2022/09/05 05:16:23;;;;;;;14.63;7.80;;;16.70;99.90;;;;;;5072831;28;20036;-61
2022/09/05 05:18:54;;;;;;;12.43;7.50;;;16.70;99.90;;;;;;5072908;28;20561;-61
2022/09/05 05:21:26;;;;;;;11.50;7.65;;;16.70;99.90;;;;;;5072481;28;20101;-61
2022/09/05 05:24:08;;;;;;;13.18;7.50;;;16.80;99.90;;;;;;5072900;28;20120;-61
2022/09/05 05:26:46;;;;;;;15.70;7.28;;;17.40;99.90;;;;;;5073013;28;20049;-61
2022/09/05 05:29:25;;;;;;;17.75;7.70;;;16.80;99.90;;;;;;5072965;28;20076;-61
2022/09/05 05:31:55;;;;;;;22.40;8.02;;;16.80;99.90;;;;;;5072779;28;20047;-61
2022/09/05 05:34:27;;;;;;;16.98;7.70;;;16.90;99.90;;;;;;5071626;28;20051;-61
2022/09/05 05:37:13;;;;;;;11.63;7.88;;;17.00;99.90;;;;;;5072982;28;20387;-61
2022/09/05 05:39:44;;;;;;;16.40;8.05;;;17.30;99.90;;;;;;5072537;28;20084;-62
2022/09/05 05:42:27;;;;;;;15.00;7.68;;;17.00;99.90;;;;;;5072679;28;20044;-61
2022/09/05 05:44:56;;;;;;;13.80;8.18;;;17.20;99.90;;;;;;5072964;28;20369;-61
2022/09/05 05:47:27;;;;;;;11.75;7.70;;;16.50;99.90;;;;;;5072094;28;20076;-62
2022/09/05 05:49:52;;;;;;;13.73;7.63;;;17.30;99.90;;;;;;5072552;28;20519;-62
2022/09/05 05:52:57;;;;;;;23.85;8.25;;;17.30;99.90;;;;;;5072764;28;20032;-62
2022/09/05 05:56:01;;;;;;;22.20;7.93;;;17.50;99.90;;;;;;5072553;28;20133;-61
2022/09/05 05:58:57;;;;;;;19.45;8.10;;;17.40;99.90;;;;;;5068089;28;20103;-61
2022/09/05 06:01:34;;;;;;;13.83;8.13;;;17.00;99.90;;;;;;5072603;28;20072;-61
2022/09/05 06:04:25;;;;;;;22.25;7.85;;;16.90;99.90;;;;;;5072713;28;20271;-62
2022/09/05 06:07:19;;;;;;;12.65;7.40;;;18.10;99.90;;;;;;5071491;28;20554;-62
2022/09/05 06:09:45;;;;;;;25.55;8.60;;;18.30;99.90;;;;;;5072824;28;20040;-62
2022/09/05 06:12:29;;;;;;;19.17;7.45;;;18.30;99.90;;;;;;5072420;28;20048;-62
2022/09/05 06:15:02;;;;;;;29.70;8.00;;;19.50;99.90;;;;;;5071123;28;20032;-57
2022/09/05 06:17:59;;;;;;;19.70;7.10;;;19.00;99.90;;;;;;5072442;28;20047;-57
2022/09/05 06:20:48;;;;;;;15.27;7.85;;;19.50;99.90;;;;;;5072221;28;20032;-57
2022/09/05 06:23:44;;;;;;;17.85;6.95;;;20.40;99.90;;;;;;5062920;28;20041;-57
2022/09/05 06:26:48;;;;;;;13.70;6.75;;;21.00;99.90;;;;;;5069561;28;20049;-57
2022/09/05 06:29:26;;;;;;;14.32;6.88;;;22.10;99.90;;;;;;5071157;28;20430;-57
2022/09/05 06:32:11;;;;;;;13.05;6.93;;;22.70;99.90;;;;;;5069740;28;20088;-57
2022/09/05 06:34:55;;;;;;;16.05;6.57;;;23.50;98.50;;;;;;5074638;28;20052;-62
2022/09/05 06:37:42;;;;;;;14.95;6.25;;;23.70;91.90;;;;;;5074641;28;20495;-62
2022/09/05 06:40:39;;;;;;;15.18;7.05;;;24.70;88.40;;;;;;5055002;28;20041;-57
2022/09/05 06:43:11;;;;;;;16.90;5.90;;;25.40;90.60;;;;;;5061205;28;20045;-63
2022/09/05 06:45:49;;;;;;;14.23;6.70;;;25.60;80.00;;;;;;5074361;28;20036;-62
2022/09/05 06:48:26;;;;;;;12.15;6.30;;;26.50;85.50;;;;;;5074846;28;20124;-63
2022/09/05 06:51:30;;;;;;;12.73;6.60;;;27.20;84.80;;;;;;5074499;28;20036;-63
2022/09/05 06:53:56;;;;;;;17.70;6.55;;;27.40;72.50;;;;;;5072446;28;20044;-66
2022/09/05 06:56:39;;;;;;;14.30;6.43;;;28.00;69.30;;;;;;5074432;28;20048;-63
2022/09/05 06:59:25;;;;;;;15.93;6.00;;;28.90;75.10;;;;;;5074503;28;20455;-68
2022/09/05 07:02:00;;;;;;;15.30;6.38;;;30.10;76.80;;;;;;5072998;28;20076;-63
2022/09/05 07:05:13;;;;;;;18.60;5.72;;;29.20;71.30;;;;;;5074420;28;20128;-68
2022/09/05 07:08:03;;;;;;;11.90;5.90;;;29.50;60.90;;;;;;5052463;28;20080;-63
2022/09/05 07:10:32;;;;;;;11.93;6.18;;;30.20;71.10;;;;;;5052080;28;20052;-63
2022/09/05 07:13:28;;;;;;;13.13;5.90;;;30.20;59.00;;;;;;5052067;28;20106;-64
2022/09/05 07:16:07;;;;;;;;;;;30.30;57.30;;;;;;5052923;28;20049;-63
2022/09/05 07:19:16;;;;;;;16.90;5.63;;;30.40;57.70;;;;;;5052298;28;19920;-63
2022/09/05 07:22:12;;;;;;;13.10;5.75;;;30.80;57.00;;;;;;5030124;28;20091;-58
2022/09/05 07:24:43;;;;;;;16.90;5.90;;;31.30;64.90;;;;;;5052823;28;20060;-63
2022/09/05 07:27:22;;;;;;;20.38;5.47;;;31.40;62.60;;;;;;5051086;28;20449;-63
2022/09/05 07:29:48;;;;;;;16.98;5.78;;;31.70;62.50;;;;;;5051467;28;20064;-63
2022/09/05 07:32:16;;;;;;;12.95;5.35;;;31.80;53.60;;;;;;5051388;28;20045;-63
2022/09/05 07:34:45;;;;;;;12.10;5.25;;;31.20;58.90;;;;;;5034816;28;20087;-63
2022/09/05 07:38:05;;;;;;;12.70;5.40;;;31.60;61.80;;;;;;5051519;28;20056;-64
2022/09/05 07:40:35;;;;;;;11.80;5.53;;;31.90;62.90;;;;;;4992403;28;20585;-63
2022/09/05 07:43:22;;;;;;;12.47;5.37;;;31.90;55.10;;;;;;4994641;28;20518;-63
2022/09/05 07:46:05;;;;;;;20.55;6.00;;;31.90;59.20;;;;;;5012564;28;20087;-64
2022/09/05 07:48:46;;;;;;;9.30;5.30;;;32.10;52.00;;;;;;5012292;28;20045;-63
2022/09/05 07:51:30;;;;;;;13.27;5.80;;;31.90;60.20;;;;;;5012431;28;20112;-63
2022/09/05 07:54:02;;;;;;;16.48;6.03;;;32.20;59.60;;;;;;5012378;28;20116;-63
2022/09/05 07:56:44;;;;;;;12.32;5.88;;;31.40;52.10;;;;;;5012477;28;20157;-63
2022/09/05 07:59:14;;;;;;;12.52;5.65;;;30.90;63.40;;;;;;5012306;28;20370;-63
2022/09/05 08:01:46;;;;;;;13.88;5.78;;;30.80;53.90;;;;;;5011302;28;20111;-64
2022/09/05 08:04:24;;;;;;;15.98;5.90;;;30.60;54.30;;;;;;5012228;28;20054;-64
2022/09/05 08:06:51;;;;;;;13.10;5.50;;;30.50;54.90;;;;;;5012159;28;20084;-64
2022/09/05 08:09:27;;;;;;;12.70;5.57;;;30.00;63.80;;;;;;5011943;28;20124;-64
2022/09/05 08:11:57;;;;;;;7.68;5.13;;;30.00;56.30;;;;;;5065835;28;20127;-64
2022/09/05 08:14:26;;;;;;;13.20;5.60;;;29.60;57.60;;;;;;5072532;28;20044;-64
2022/09/05 08:16:51;;;;;;;12.30;5.15;;;29.30;58.30;;;;;;5073903;28;20036;-58
2022/09/05 08:19:39;;;;;;;14.88;5.68;;;29.20;68.30;;;;;;5073721;28;20106;-57
2022/09/05 08:22:12;;;;;;;7.70;5.20;;;29.30;67.30;;;;;;5073689;28;20136;-57
2022/09/05 08:25:13;;;;;;;7.90;5.15;;;29.10;67.80;;;;;;5073507;28;20481;-57
2022/09/05 08:28:06;;;;;;;7.47;5.20;;;29.10;59.90;;;;;;5072138;28;20576;-63
2022/09/05 08:30:41;;;;;;;11.35;5.40;;;28.60;60.50;;;;;;5073278;28;20040;-64
2022/09/05 08:33:14;;;;;;;13.63;4.80;;;28.60;71.50;;;;;;5073731;28;20380;-64
2022/09/05 08:35:51;;;;;;;13.25;4.90;;;28.40;62.70;;;;;;5073585;28;20391;-64
2022/09/05 08:38:17;;;;;;;12.45;5.43;;;28.70;62.20;;;;;;5073490;28;20124;-64
2022/09/05 08:41:13;;;;;;;11.10;5.45;;;28.90;61.60;;;;;;5073283;28;20036;-64
2022/09/05 08:44:03;;;;;;;17.88;5.28;;;29.40;70.80;;;;;;5072315;28;20517;-64
2022/09/05 08:47:18;;;;;;;15.35;4.78;;;28.10;68.40;;;;;;5073160;28;20044;-64
2022/09/05 08:49:50;;;;;;;15.35;4.75;;;28.80;62.10;;;;;;5070114;28;20515;-64
2022/09/05 08:52:37;;;;;;;18.98;5.28;;;29.00;67.60;;;;;;5073453;28;20044;-64
2022/09/05 08:55:05;;;;;;;11.40;4.57;;;28.90;62.00;;;;;;5072557;28;20094;-64
2022/09/05 08:58:07;;;;;;;15.15;5.20;;;29.20;62.20;;;;;;5073077;28;20045;-64
2022/09/05 09:00:44;;;;;;;21.02;5.05;;;29.40;61.70;;;;;;5073604;28;20048;-64
2022/09/05 09:03:41;;;;;;;16.90;4.38;;;30.10;68.90;;;;;;5071675;28;20052;-64
2022/09/05 09:06:33;;;;;;;10.40;4.28;;;29.80;67.80;;;;;;5073082;28;20040;-65
2022/09/05 09:09:25;;;;;;;9.55;4.30;;;29.90;60.90;;;;;;5072984;28;20116;-65
2022/09/05 09:11:51;;;;;;;7.15;4.00;;;30.00;60.10;;;;;;5072728;28;20043;-65
2022/09/05 09:14:50;;;;;;;15.57;4.25;;;30.10;59.90;;;;;;5071963;28;20036;-65
2022/09/05 09:17:23;;;;;;;10.25;4.15;;;30.20;67.30;;;;;;5072887;28;20044;-65
2022/09/05 09:19:51;;;;;;;7.95;4.30;;;30.10;60.20;;;;;;5072861;28;20072;-65
2022/09/05 09:22:35;;;;;;;12.15;3.97;;;30.60;67.30;;;;;;5073002;28;20131;-64
2022/09/05 09:25:30;;;;;;;9.07;4.05;;;30.30;59.80;;;;;;5072832;28;20044;-65
2022/09/05 09:27:56;;;;;;;8.90;4.15;;;30.50;66.80;;;;;;5073127;28;20041;-65
2022/09/05 09:30:22;;;;;;;13.40;4.30;;;30.50;66.00;;;;;;5072644;28;20067;-65
2022/09/05 09:32:49;;;;;;;11.02;4.05;;;30.50;59.70;;;;;;5072854;28;20036;-65
2022/09/05 09:35:42;;;;;;;13.13;4.40;;;30.30;59.80;;;;;;5073075;28;20036;-65
2022/09/05 09:38:47;;;;;;;9.95;4.20;;;30.00;59.30;;;;;;5071574;28;20047;-65
2022/09/05 09:41:31;;;;;;;11.07;3.80;;;29.80;59.90;;;;;;5072655;28;20036;-65
2022/09/05 09:44:34;;;;;;;9.90;4.10;;;29.20;60.70;;;;;;5072692;28;20055;-65
2022/09/05 09:47:07;;;;;;;8.93;3.90;;;29.10;61.10;;;;;;5072467;28;20044;-65
2022/09/05 09:49:55;;;;;;;8.90;3.65;;;29.00;62.30;;;;;;5072636;28;20041;-65
2022/09/05 09:52:42;;;;;;;6.07;3.65;;;28.80;61.90;;;;;;5072533;28;20036;-65
2022/09/05 09:55:39;;;;;;;10.60;3.35;;;28.70;62.30;;;;;;5072688;28;20044;-65
2022/09/05 09:58:17;;;;;;;10.65;3.50;;;28.90;62.00;;;;;;5072511;28;20396;-64
2022/09/05 10:00:59;;;;;;;7.88;3.35;;;29.20;67.70;;;;;;5072667;28;20090;-66
2022/09/05 10:03:59;;;;;;;8.30;3.20;;;29.00;62.00;;;;;;5072365;28;20135;-65
2022/09/05 10:06:40;;;;;;;9.98;3.38;;;29.30;61.40;;;;;;5073395;28;20049;-65
2022/09/05 10:09:46;;;;;;;6.05;3.15;;;29.60;67.50;;;;;;5076226;28;20044;-65
2022/09/05 10:12:44;;;;;;;5.63;3.17;;;29.60;60.90;;;;;;5074841;28;20048;-65
2022/09/05 10:15:29;;;;;;;7.68;3.42;;;29.80;60.80;;;;;;5076167;28;20051;-65
2022/09/05 10:17:57;;;;;;;15.98;3.20;;;30.00;67.90;;;;;;5076353;28;20043;-65
2022/09/05 10:20:53;;;;;;;7.55;3.30;;;30.00;60.50;;;;;;5076092;28;20056;-66
2022/09/05 10:23:38;;;;;;;11.65;3.20;;;30.20;66.70;;;;;;5076074;28;20063;-65
2022/09/05 10:26:42;;;;;;;8.13;3.25;;;30.10;59.60;;;;;;5076001;28;20063;-65
2022/09/05 10:29:17;;;;;;;9.13;3.20;;;30.00;58.60;;;;;;5076099;28;20399;-65
2022/09/05 10:31:56;;;;;;;4.28;2.63;;;29.90;60.00;;;;;;5076091;28;20040;-65
2022/09/05 10:34:29;;;;;;;7.10;3.08;;;29.80;59.70;;;;;;5076125;28;20442;-65
2022/09/05 10:37:04;;;;;;;5.05;2.90;;;29.80;59.40;;;;;;5075741;28;20033;-66
2022/09/05 10:39:34;;;;;;;7.80;3.22;;;29.80;59.20;;;;;;5076010;28;20069;-65
2022/09/05 10:42:13;;;;;;;4.22;3.22;;;29.70;59.30;;;;;;5075864;28;20051;-66
2022/09/05 10:44:52;;;;;;;8.02;2.97;;;29.50;59.60;;;;;;5075759;28;20044;-66
2022/09/05 10:47:23;;;;;;;5.55;2.75;;;29.40;59.80;;;;;;5075662;28;20055;-66
2022/09/05 10:49:56;;;;;;;5.97;2.90;;;29.50;59.90;;;;;;5075470;28;20065;-66
2022/09/05 10:52:38;;;;;;;4.82;2.80;;;29.60;59.70;;;;;;5073502;28;20059;-66
2022/09/05 10:55:29;;;;;;;10.48;2.78;;;29.70;59.50;;;;;;5065091;28;20477;-66
2022/09/05 10:58:00;;;;;;;7.05;2.90;;;29.80;59.50;;;;;;5059102;28;20080;-66
2022/09/05 11:01:14;;;;;;;5.55;3.00;;;29.90;59.30;;;;;;5074683;28;20036;-65
2022/09/05 11:04:04;;;;;;;6.60;2.80;;;29.90;57.80;;;;;;5033679;28;20057;-63
2022/09/05 11:06:50;;;;;;;6.22;3.03;;;29.90;58.30;;;;;;5052848;28;20053;-62
2022/09/05 11:09:49;;;;;;;6.72;2.92;;;30.00;59.40;;;;;;5049919;28;20078;-62
2022/09/05 11:12:49;;;;;;;4.28;2.70;;;30.20;63.50;;;;;;5051390;28;20045;-62
2022/09/05 11:15:26;;;;;;;3.55;2.80;;;30.20;58.20;;;;;;5051308;28;20087;-62
2022/09/05 11:17:55;;;;;;;11.43;2.70;;;30.30;57.90;;;;;;5051370;28;20044;-62
2022/09/05 11:20:44;;;;;;;5.00;2.90;;;30.30;58.30;;;;;;5034698;28;20118;-62
2022/09/05 11:23:16;;;;;;;4.30;3.05;;;30.40;57.70;;;;;;5050051;28;20045;-62
2022/09/05 11:25:45;;;;;;;8.30;2.88;;;30.40;57.60;;;;;;5051185;28;20118;-60
2022/09/05 11:28:33;;;;;;;4.57;2.60;;;30.50;57.30;;;;;;5051246;28;20063;-61
2022/09/05 11:31:03;;;;;;;7.43;2.70;;;30.60;57.20;;;;;;5051538;28;20075;-59
2022/09/05 11:33:45;;;;;;;6.70;2.45;;;30.70;56.80;;;;;;5049322;28;20045;-60
2022/09/05 11:36:44;;;;;;;7.57;2.65;;;30.60;56.50;;;;;;5049633;28;20136;-63
2022/09/05 11:39:34;;;;;;;4.68;2.42;;;30.60;56.00;;;;;;5030141;28;20060;-60
2022/09/05 11:42:10;;;;;;;9.63;2.80;;;30.50;56.40;;;;;;5072456;28;20038;-62
2022/09/05 11:44:38;;;;;;;5.50;2.65;;;30.40;56.20;;;;;;5073664;28;20102;-62
2022/09/05 11:47:35;;;;;;;5.18;2.45;;;30.40;56.30;;;;;;5074331;28;20144;-64
2022/09/05 11:50:23;;;;;;;5.60;2.60;;;30.30;56.20;;;;;;5074159;28;20369;-64
2022/09/05 11:52:58;;;;;;;4.00;2.30;;;30.20;56.50;;;;;;5074647;28;20107;-61
2022/09/05 11:55:26;;;;;;;;;;;30.30;56.70;;;;;;5075004;28;20040;-62
2022/09/05 11:58:15;;;;;;;8.43;2.90;;;30.40;55.90;;;;;;5074276;28;19970;-61
2022/09/05 12:00:50;;;;;;;8.88;2.70;;;30.40;56.10;;;;;;5074231;28;20056;-62
2022/09/05 12:03:37;;;;;;;8.80;2.70;;;30.40;56.30;;;;;;5073684;28;20052;-61
2022/09/05 12:06:39;;;;;;;8.13;2.83;;;30.60;56.00;;;;;;5073959;28;20044;-62
2022/09/05 12:09:30;;;;;;;7.53;2.60;;;30.80;55.60;;;;;;5073903;28;20097;-62
2022/09/05 12:12:25;;;;;;;6.20;2.30;;;30.80;54.90;;;;;;5072708;28;20052;-62
2022/09/05 12:15:15;;;;;;;7.40;2.50;;;30.70;55.10;;;;;;5073928;28;20037;-62
2022/09/05 12:18:13;;;;;;;4.88;2.58;;;30.70;55.40;;;;;;5073898;28;20048;-61
2022/09/05 12:21:01;;;;;;;5.45;2.47;;;30.90;55.10;;;;;;5072983;28;20499;-62
2022/09/05 12:23:48;;;;;;;6.65;2.65;;;31.10;54.50;;;;;;5068660;28;20040;-62
2022/09/05 12:26:21;;;;;;;5.00;2.53;;;31.30;55.50;;;;;;5065908;28;20062;-62
2022/09/05 12:29:08;;;;;;;6.28;2.42;;;31.50;53.10;;;;;;5072476;28;20040;-62
2022/09/05 12:31:37;;;;;;;7.07;2.65;;;31.70;53.50;;;;;;5072963;28;20121;-63
2022/09/05 12:34:09;;;;;;;5.60;2.40;;;31.80;53.00;;;;;;5070250;28;20047;-62
2022/09/05 12:36:48;;;;;;;5.05;2.58;;;31.70;52.60;;;;;;5066145;28;20594;-63
2022/09/05 12:39:33;;;;;;;9.93;2.50;;;31.70;52.70;;;;;;5063734;28;20472;-62
2022/09/05 12:42:03;;;;;;;5.45;2.67;;;31.60;52.40;;;;;;5053499;28;20386;-62
2022/09/05 12:44:54;;;;;;;12.35;3.00;;;31.50;52.70;;;;;;5067276;28;20497;-62
2022/09/05 12:47:22;;;;;;;4.28;2.70;;;31.40;53.90;;;;;;5072345;28;20033;-62
2022/09/05 12:49:55;;;;;;;7.40;2.70;;;31.30;52.40;;;;;;5073492;28;20412;-62
2022/09/05 12:52:32;;;;;;;5.50;2.60;;;31.30;52.30;;;;;;5073263;28;20032;-62
2022/09/05 12:55:21;;;;;;;9.23;2.70;;;31.30;52.90;;;;;;5073202;28;20051;-62
2022/09/05 12:57:50;;;;;;;5.43;2.40;;;31.50;53.10;;;;;;5068910;28;20048;-62
2022/09/05 13:00:22;;;;;;;6.57;2.70;;;31.70;52.50;;;;;;5073132;28;20036;-61
2022/09/05 13:02:56;;;;;;;4.18;2.45;;;31.80;52.00;;;;;;5073209;28;20135;-62
2022/09/05 13:05:33;;;;;;;4.53;2.42;;;31.70;52.00;;;;;;5073090;28;20056;-61
2022/09/05 13:08:00;;;;;;;7.78;2.55;;;31.70;52.00;;;;;;5055109;28;20045;-62
2022/09/05 13:10:36;;;;;;;3.40;2.50;;;31.60;51.80;;;;;;5073075;28;20070;-61
2022/09/05 13:13:22;;;;;;;5.88;2.47;;;31.60;51.40;;;;;;5073080;28;20036;-61
2022/09/05 13:15:52;;;;;;;4.75;2.45;;;31.40;51.70;;;;;;5073252;28;20047;-64
2022/09/05 13:18:24;;;;;;;7.68;2.30;;;31.20;52.00;;;;;;5073181;28;20055;-63
2022/09/05 13:21:07;;;;;;;6.18;2.28;;;31.10;52.00;;;;;;5072898;28;20477;-62
2022/09/05 13:23:46;;;;;;;4.97;2.25;;;31.20;52.40;;;;;;5073284;28;20054;-62
2022/09/05 13:26:16;;;;;;;3.47;2.22;;;31.30;52.80;;;;;;5071881;28;20123;-63
2022/09/05 13:28:55;;;;;;;5.93;2.42;;;31.50;51.70;;;;;;5072856;28;20047;-61
2022/09/05 13:31:49;;;;;;;6.82;2.28;;;31.50;51.40;;;;;;5073081;28;20032;-61
2022/09/05 13:34:24;;;;;;;18.42;2.58;;;31.40;51.40;;;;;;5071552;28;20053;-62
2022/09/05 13:37:02;;;;;;;4.97;2.40;;;31.50;51.30;;;;;;5071812;28;20048;-62
2022/09/05 13:39:58;;;;;;;12.82;2.55;;;31.50;51.10;;;;;;5072757;28;20503;-62
2022/09/05 13:42:29;;;;;;;3.45;2.22;;;31.20;51.50;;;;;;5070633;28;20116;-62
2022/09/05 13:44:58;;;;;;;15.48;2.95;;;30.00;55.50;;;;;;5077057;28;20168;-62
2022/09/05 13:47:28;;;;;;;7.10;2.30;;;31.30;51.40;;;;;;5076888;28;20048;-56
2022/09/05 13:50:36;;;;;;;7.60;2.20;;;31.20;51.60;;;;;;5076648;28;20040;-56
2022/09/05 13:53:31;;;;;;;5.53;2.28;;;31.40;51.80;;;;;;5054234;28;20146;-56
2022/09/05 13:56:20;;;;;;;4.07;2.15;;;31.60;51.30;;;;;;5054561;28;20121;-62
2022/09/05 13:58:52;;;;;;;4.22;2.30;;;31.80;51.00;;;;;;5054457;28;20085;-62
2022/09/05 14:01:55;;;;;;;6.30;2.10;;;31.90;50.70;;;;;;5037678;28;20044;-61
2022/09/05 14:04:53;;;;;;;3.30;2.15;;;32.20;50.60;;;;;;5021094;28;20131;-62
2022/09/05 14:07:43;;;;;;;7.68;2.35;;;32.30;50.30;;;;;;5054165;28;20052;-62